• Join FlightAware (Why Join?)
  • Login
  • US Flag 
10:33AM EDT


 

Airport Tracker/Info


-or-


 

Live Flight TrackerFlight Track Log ✈ TAM3241 ✈ 27-Jul-2013 ✈ SBUL / UDI - SBSP / CGH

Flight Track Log - Related Links

Times and Time Zones

All times are in EDT time to prevent confusion due to time zone crossing. See the TAM3241 flight status page for this flight to view local times or setup timezone preferences in your user account.

Time Position Orientation Groundspeed Altitude Reporting Facility
EDT Latitude Longitude Course Direction KTS MPH feet Rate Location/Type
02:39PM -18.9940 -48.1940 180° South 278 320 6,700  Level FlightAware
02:40PM -19.0500 -48.1940 180° South 283 326 9,400 3,060 Climbing FlightAware
02:40PM -19.1020 -48.1920 178° South 313 360 10,900 2,100 Climbing FlightAware
02:41PM -19.1690 -48.1910 179° South 350 403 12,200 2,400 Climbing FlightAware
02:42PM -19.2410 -48.1900 179° South 356 410 14,400 2,700 Climbing FlightAware
02:42PM -19.3080 -48.1880 178° South 368 423 16,000 2,400 Climbing FlightAware
02:43PM -19.3690 -48.1870 179° South 377 434 17,400 2,580 Climbing FlightAware
02:44PM -19.4490 -48.1860 179° South 373 429 19,500 2,280 Climbing FlightAware
02:44PM -19.5090 -48.1840 178° South 383 441 20,500 1,980 Climbing FlightAware
02:45PM -19.5920 -48.1830 179° South 383 441 22,200 1,860 Climbing FlightAware
02:46PM -19.6630 -48.1820 179° South 394 453 23,200 1,740 Climbing FlightAware
02:46PM -19.7440 -48.1800 179° South 395 455 24,700 1,740 Climbing FlightAware
02:47PM -19.8220 -48.1780 179° South 407 468 25,700 1,380 Climbing FlightAware
02:48PM -19.9070 -48.1770 179° South 419 482 26,700 1,560 Climbing FlightAware
02:49PM -19.9850 -48.1750 179° South 420 483 27,900 1,980 Climbing FlightAware
02:49PM -20.0700 -48.1740 179° South 415 478 29,500 2,160 Climbing FlightAware
02:50PM -20.1470 -48.1720 179° South 405 466 31,000 1,800 Climbing FlightAware
02:51PM -20.2250 -48.1710 179° South 396 456 32,000 720 Climbing FlightAware
02:51PM -20.2950 -48.1690 178° South 396 456 32,000  Level FlightAware
02:52PM -20.3800 -48.1580 173° South 403 464 32,000  Level FlightAware
02:53PM -20.4550 -48.1390 167° South 402 463 32,000  Level FlightAware
02:54PM -20.5390 -48.1190 167° South 402 463 32,000  Level FlightAware
02:54PM -20.6110 -48.1020 168° South 403 464 32,000  Level FlightAware
02:55PM -20.6930 -48.0820 167° South 418 481 32,000  Level FlightAware
02:56PM -20.7690 -48.0640 168° South 421 484 32,000  Level FlightAware
02:56PM -20.8420 -48.0460 167° South 420 483 32,000  Level FlightAware
02:57PM -20.9260 -48.0250 167° South 419 482 32,000  Level FlightAware
02:58PM -21.0050 -48.0060 167° South 419 482 32,000  Level FlightAware
02:58PM -21.0930 -47.9850 167° South 420 483 32,000  Level FlightAware
02:59PM -21.1730 -47.9650 167° South 420 483 32,000  Level FlightAware
03:00PM -21.2460 -47.9480 168° South 421 484 32,000  Level FlightAware
03:01PM -21.3290 -47.9270 167° South 421 484 32,000  Level FlightAware
03:01PM -21.4080 -47.9080 167° South 421 484 32,000  Level FlightAware
03:02PM -21.4740 -47.8920 167° South 420 483 32,000  Level FlightAware
03:03PM -21.5650 -47.8690 167° South 419 482 32,000  Level FlightAware
03:03PM -21.6490 -47.8490 168° South 418 481 32,000  Level FlightAware
03:04PM -21.7240 -47.8300 167° South 418 481 32,000  Level FlightAware
03:05PM -21.8080 -47.8100 168° South 419 482 32,000  Level FlightAware
03:05PM -21.8780 -47.7920 167° South 421 484 32,000  Level FlightAware
03:06PM -21.9530 -47.7740 167° South 422 486 32,000  Level FlightAware
03:07PM -22.0320 -47.7550 167° South 423 487 32,000  Level FlightAware
03:07PM -22.1030 -47.7370 167° South 424 488 32,000  Level FlightAware
03:08PM -22.1870 -47.7160 167° South 422 486 32,000 -360 Level FlightAware
03:09PM -22.2620 -47.6980 167° South 419 482 31,500 -1,680 Descending FlightAware
03:09PM -22.3270 -47.6820 167° South 420 483 30,000 -2,520 Descending FlightAware
03:10PM -22.4070 -47.6610 166° South 417 480 28,300 -2,160 Descending FlightAware
03:11PM -22.4800 -47.6430 167° South 403 464 27,000 -2,700 Descending FlightAware
03:11PM -22.5480 -47.6260 167° South 429 494 24,900 -2,940 Descending FlightAware
03:12PM -22.6340 -47.6050 167° South 431 496 23,200 -2,340 Descending FlightAware
03:13PM -22.7130 -47.5850 167° South 419 482 21,700 -2,220 Descending FlightAware
03:14PM -22.8150 -47.5490 162° South 426 490 19,700 -2,400 Descending FlightAware
03:14PM -22.8780 -47.4910 140° Southeast 418 481 17,800 -2,820 Descending FlightAware
03:15PM -22.9320 -47.4410 140° Southeast 414 476 16,000 -2,520 Descending FlightAware
03:16PM -22.9950 -47.3830 140° Southeast 413 475 14,400 -2,160 Descending FlightAware
03:16PM -23.0480 -47.3340 140° Southeast 401 461 13,100 -1,680 Descending FlightAware
03:17PM -23.0970 -47.2880 139° Southeast 398 458 12,400 -960 Descending FlightAware
03:18PM -23.1570 -47.2320 139° Southeast 396 456 11,800 -900 Descending FlightAware
03:18PM -23.2030 -47.1890 139° Southeast 367 422 11,300 -780 Descending FlightAware
03:19PM -23.2550 -47.1300 134° Southeast 330 380 10,800 -1,320 Descending FlightAware
03:20PM -23.2970 -47.0590 123° Southeast 293 337 9,200 -1,920 Descending FlightAware
03:20PM -23.3160 -47.0290 125° Southeast 295 339 8,400 -1,800 Descending FlightAware
03:21PM -23.3340 -46.9980 122° Southeast 289 333 7,800 -1,500 Descending FlightAware
03:21PM -23.3580 -46.9590 124° Southeast 291 335 7,000 -1,200 Descending FlightAware
03:22PM -23.3780 -46.9250 123° Southeast 288 331 6,600 -960 Descending FlightAware
03:22PM -23.4000 -46.8890 124° Southeast 281 323 6,100 -840 Descending FlightAware
03:23PM -23.4190 -46.8580 124° Southeast 274 315 5,800 -600 Descending FlightAware
03:23PM -23.4370 -46.8280 123° Southeast 256 295 5,600 -480 Descending FlightAware
03:23PM -23.4540 -46.7980 122° Southeast 237 273 5,400 -420 Descending FlightAware
03:24PM -23.4720 -46.7700 125° Southeast 217 250 5,200 -240 Descending FlightAware
03:24PM -23.4920 -46.7500 137° Southeast 201 231 5,200 -480 Level FlightAware
03:25PM -23.5100 -46.7370 146° Southeast 195 224 4,800 -1,020 Descending FlightAware
03:25PM -23.5280 -46.7250 149° Southeast 178 205 4,400 -900 Descending FlightAware
03:26PM -23.5440 -46.7140 148° Southeast 155 178 4,100 -900 Descending FlightAware
03:26PM -23.5620 -46.7020 149° Southeast 137 158 3,600 -780 Descending FlightAware
03:27PM -23.5740 -46.6930 145° Southeast 130 150 3,400 -660 Descending FlightAware
03:27PM -23.5910 -46.6810 147° Southeast 127 146 3,000 -720 Descending FlightAware
03:27PM -23.5970 -46.6770 149° Southeast 127 146 2,900 -660 Descending FlightAware
03:28PM -23.6090 -46.6690 149° Southeast 126 145 2,600 -540 Descending FlightAware
03:28PM -23.6250 -46.6580 148° Southeast 124 143 2,300 -240 Descending FlightAware
03:29PM -23.6180 -46.6460 58° Northeast 121 139 2,300  Level FlightAware
03:30PM -23.6270 -46.6580 231° Southwest -1,620 Descending FlightAware
03:31PM -23.6250 -46.6590 335° Northwest  Level FlightAware
03:32PM -23.6250 -46.6600 270° West  Level FlightAware
03:34PM -23.6267 -46.6554 112° Southeast  Level Estimated
03:35PM -23.6267 -46.6554 114° Southeast  Level Estimated
03:36PM -23.6267 -46.6554 114° Southeast  Level Estimated
03:37PM -23.6267 -46.6554 114° Southeast  Level Estimated
03:38PM -23.6267 -46.6554 114° Southeast  Level Estimated
03:39PM -23.6267 -46.6554 114° Southeast  Level Estimated
03:40PM -23.6267 -46.6554 114° Southeast  Level Estimated
03:41PM -23.6267 -46.6554 114° Southeast  Level Estimated
03:42PM -23.6267 -46.6554 114° Southeast  Level Estimated